PTSA

Details ICAO PTSA (KSA)
Name Kosrae
Region Federated States of Micronesia, Palau
Timezone Unknown (UTC+0.0)
Plans Departing 21
Arriving 26
Stats Elevation 11 ft / 3 m (AMSL)
Location 5.356922° 162.958403°
Runways 1
Magnetic Variation 7.145° E
Sunrise 2018-05-26 18:54:46 UTC / 2018-05-26 18:54:46 Local
Sunset 2018-05-27 07:18:38 UTC / 2018-05-27 07:18:38 Local
Advertisement - Login to hide

Runways

ID Width Length Bearing (true) Bearing (mag) Surface Threshold Offset Overrun Length
05 151 ft / 46 m 5,749 ft / 1,752 m 55.56° 48.41° Asphalt 0 ft / 0 m 207 ft / 63 m
23 151 ft / 46 m 5,749 ft / 1,752 m 235.56° 228.41° Asphalt 0 ft / 0 m 207 ft / 63 m

Map

Weather


0- 5 10 15 20 25 30 35+ Temperature / ° C

Clouds and Precipitation
Forecast for 2018-05-27 06:00 UTC. Updated 3 hours ago

Ground ~20,000 ft ~40,000 ft Winds

METAR

Not found

TAF

TAF PTSA 262320Z 2700/2724 09011KT P6SM VCSH BKN015 BKN120 TEMPO 2700/2703 3SM +SHRA OVC012

Frequencies

Unicom 123.60 MHz CTAF
Warning: Do not use this data for real-world aviation or navigation. No guarantee of current accuracy is given.